Terminal Aerodrome Forecast
Issued by NWS Wakefield, VA

Home | Current Version | Previous Version | Text Only | Print | Product List | Glossary On
Versions: 1 2 3 4 5 6 7 8 9 10 11 12 13 14 15 16 17 18 19 20 21 22
000
FTUS41 KAKQ 051340 AAA
TAFECG
TAF AMD
KECG 051340Z 0514/0612 03012G19KT P6SM BKN025 OVC040
      TEMPO 0514/0515 BKN015
     FM051600 05013G21KT P6SM BKN040
     FM060200 04010KT P6SM OVC040
     FM060600 03005KT 5SM -RA BKN025 OVC040=

USA.gov is the U.S. government's official web portal to all federal, state and local government web resources and services.